sensor_id;sensor_type;location;lat;lon;timestamp;temperature;humidity
18779;DHT22;9518;51.720;14.384;2022-09-09T00:01:49;12.40;99.90
18779;DHT22;9518;51.720;14.384;2022-09-09T00:04:25;12.40;99.90
18779;DHT22;9518;51.720;14.384;2022-09-09T00:06:59;12.50;99.90
18779;DHT22;9518;51.720;14.384;2022-09-09T00:09:31;12.60;99.90
18779;DHT22;9518;51.720;14.384;2022-09-09T00:12:10;12.60;99.90
18779;DHT22;9518;51.720;14.384;2022-09-09T00:14:45;12.60;99.90
18779;DHT22;9518;51.720;14.384;2022-09-09T00:17:25;12.50;99.90
18779;DHT22;9518;51.720;14.384;2022-09-09T00:19:58;12.40;99.90
18779;DHT22;9518;51.720;14.384;2022-09-09T00:22:29;12.40;99.90
18779;DHT22;9518;51.720;14.384;2022-09-09T00:25:02;12.30;99.90
18779;DHT22;9518;51.720;14.384;2022-09-09T00:27:33;12.30;99.90
18779;DHT22;9518;51.720;14.384;2022-09-09T00:30:14;12.20;99.90
18779;DHT22;9518;51.720;14.384;2022-09-09T00:32:44;12.10;99.90
18779;DHT22;9518;51.720;14.384;2022-09-09T00:35:18;12.10;99.90
18779;DHT22;9518;51.720;14.384;2022-09-09T00:37:48;12.10;99.90
18779;DHT22;9518;51.720;14.384;2022-09-09T00:40:25;12.10;99.90
18779;DHT22;9518;51.720;14.384;2022-09-09T00:43:03;12.10;99.90
18779;DHT22;9518;51.720;14.384;2022-09-09T00:48:40;12.00;99.90
18779;DHT22;9518;51.720;14.384;2022-09-09T00:51:15;12.00;99.90
18779;DHT22;9518;51.720;14.384;2022-09-09T00:54:04;11.90;99.90
18779;DHT22;9518;51.720;14.384;2022-09-09T00:56:37;11.80;99.90
18779;DHT22;9518;51.720;14.384;2022-09-09T00:59:20;11.90;99.90
18779;DHT22;9518;51.720;14.384;2022-09-09T01:01:49;11.80;99.90
18779;DHT22;9518;51.720;14.384;2022-09-09T01:04:24;11.80;99.90
18779;DHT22;9518;51.720;14.384;2022-09-09T01:07:03;11.70;99.90
18779;DHT22;9518;51.720;14.384;2022-09-09T01:09:41;11.70;99.90
18779;DHT22;9518;51.720;14.384;2022-09-09T01:12:15;11.70;99.90
18779;DHT22;9518;51.720;14.384;2022-09-09T01:14:47;11.80;99.90
18779;DHT22;9518;51.720;14.384;2022-09-09T01:17:17;11.80;99.90
18779;DHT22;9518;51.720;14.384;2022-09-09T01:19:55;11.80;99.90
18779;DHT22;9518;51.720;14.384;2022-09-09T01:22:33;11.80;99.90
18779;DHT22;9518;51.720;14.384;2022-09-09T01:25:27;11.90;99.90
18779;DHT22;9518;51.720;14.384;2022-09-09T01:27:58;12.00;99.90
18779;DHT22;9518;51.720;14.384;2022-09-09T01:30:27;12.00;99.90
18779;DHT22;9518;51.720;14.384;2022-09-09T01:32:56;12.10;99.90
18779;DHT22;9518;51.720;14.384;2022-09-09T01:35:32;12.20;99.90
18779;DHT22;9518;51.720;14.384;2022-09-09T01:38:02;12.10;99.90
18779;DHT22;9518;51.720;14.384;2022-09-09T01:40:28;12.10;99.90
18779;DHT22;9518;51.720;14.384;2022-09-09T01:43:00;12.10;99.90
18779;DHT22;9518;51.720;14.384;2022-09-09T01:45:27;12.00;99.90
18779;DHT22;9518;51.720;14.384;2022-09-09T01:47:54;12.00;99.90
18779;DHT22;9518;51.720;14.384;2022-09-09T01:50:22;12.00;99.90
18779;DHT22;9518;51.720;14.384;2022-09-09T01:52:51;12.00;99.90
18779;DHT22;9518;51.720;14.384;2022-09-09T01:55:23;11.90;99.90
18779;DHT22;9518;51.720;14.384;2022-09-09T01:58:11;11.90;99.90
18779;DHT22;9518;51.720;14.384;2022-09-09T02:00:46;11.90;99.90
18779;DHT22;9518;51.720;14.384;2022-09-09T02:03:21;11.80;99.90
18779;DHT22;9518;51.720;14.384;2022-09-09T02:05:55;11.80;99.90
18779;DHT22;9518;51.720;14.384;2022-09-09T02:08:31;11.80;99.90
18779;DHT22;9518;51.720;14.384;2022-09-09T02:11:02;11.70;99.90
18779;DHT22;9518;51.720;14.384;2022-09-09T02:13:32;11.70;99.90
18779;DHT22;9518;51.720;14.384;2022-09-09T02:16:07;11.60;99.90
18779;DHT22;9518;51.720;14.384;2022-09-09T02:18:36;11.60;99.90
18779;DHT22;9518;51.720;14.384;2022-09-09T02:21:06;11.60;99.90
18779;DHT22;9518;51.720;14.384;2022-09-09T02:23:35;11.50;99.90
18779;DHT22;9518;51.720;14.384;2022-09-09T02:26:03;11.60;99.90
18779;DHT22;9518;51.720;14.384;2022-09-09T02:28:32;11.60;99.90
18779;DHT22;9518;51.720;14.384;2022-09-09T02:31:00;11.60;99.90
18779;DHT22;9518;51.720;14.384;2022-09-09T02:33:29;11.50;99.90
18779;DHT22;9518;51.720;14.384;2022-09-09T02:35:58;11.60;99.90
18779;DHT22;9518;51.720;14.384;2022-09-09T02:38:33;11.50;99.90
18779;DHT22;9518;51.720;14.384;2022-09-09T02:41:00;11.50;99.90
18779;DHT22;9518;51.720;14.384;2022-09-09T02:43:32;11.50;99.90
18779;DHT22;9518;51.720;14.384;2022-09-09T02:46:05;11.50;99.90
18779;DHT22;9518;51.720;14.384;2022-09-09T02:48:38;11.40;99.90
18779;DHT22;9518;51.720;14.384;2022-09-09T02:51:15;11.30;99.90
18779;DHT22;9518;51.720;14.384;2022-09-09T02:53:49;11.30;99.90
18779;DHT22;9518;51.720;14.384;2022-09-09T02:56:19;11.40;99.90
18779;DHT22;9518;51.720;14.384;2022-09-09T02:58:49;11.40;99.90
18779;DHT22;9518;51.720;14.384;2022-09-09T03:01:17;11.30;99.90
18779;DHT22;9518;51.720;14.384;2022-09-09T03:03:44;11.20;99.90
18779;DHT22;9518;51.720;14.384;2022-09-09T03:06:12;11.20;99.90
18779;DHT22;9518;51.720;14.384;2022-09-09T03:08:39;11.20;99.90
18779;DHT22;9518;51.720;14.384;2022-09-09T03:11:12;11.20;99.90
18779;DHT22;9518;51.720;14.384;2022-09-09T03:13:39;11.30;99.90
18779;DHT22;9518;51.720;14.384;2022-09-09T03:16:08;11.30;99.90
18779;DHT22;9518;51.720;14.384;2022-09-09T03:18:36;11.20;99.90
18779;DHT22;9518;51.720;14.384;2022-09-09T03:21:03;11.20;99.90
18779;DHT22;9518;51.720;14.384;2022-09-09T03:23:30;11.20;99.90
18779;DHT22;9518;51.720;14.384;2022-09-09T03:25:57;11.10;99.90
18779;DHT22;9518;51.720;14.384;2022-09-09T03:28:24;11.20;99.90
18779;DHT22;9518;51.720;14.384;2022-09-09T03:30:59;11.10;99.90
18779;DHT22;9518;51.720;14.384;2022-09-09T03:33:27;11.10;99.90
18779;DHT22;9518;51.720;14.384;2022-09-09T03:35:55;11.00;99.90
18779;DHT22;9518;51.720;14.384;2022-09-09T03:38:23;11.00;99.90
18779;DHT22;9518;51.720;14.384;2022-09-09T03:40:50;11.00;99.90
18779;DHT22;9518;51.720;14.384;2022-09-09T03:43:20;11.00;99.90
18779;DHT22;9518;51.720;14.384;2022-09-09T03:45:48;11.00;99.90
18779;DHT22;9518;51.720;14.384;2022-09-09T03:48:15;11.00;99.90
18779;DHT22;9518;51.720;14.384;2022-09-09T03:50:49;10.90;99.90
18779;DHT22;9518;51.720;14.384;2022-09-09T03:53:17;10.90;99.90
18779;DHT22;9518;51.720;14.384;2022-09-09T03:55:45;10.90;99.90
18779;DHT22;9518;51.720;14.384;2022-09-09T03:58:13;10.90;99.90
18779;DHT22;9518;51.720;14.384;2022-09-09T04:00:41;11.00;99.90
18779;DHT22;9518;51.720;14.384;2022-09-09T04:03:11;10.90;99.90
18779;DHT22;9518;51.720;14.384;2022-09-09T04:05:39;10.90;99.90
18779;DHT22;9518;51.720;14.384;2022-09-09T04:08:09;10.80;99.90
18779;DHT22;9518;51.720;14.384;2022-09-09T04:10:37;10.80;99.90
18779;DHT22;9518;51.720;14.384;2022-09-09T04:13:04;10.80;99.90
18779;DHT22;9518;51.720;14.384;2022-09-09T04:15:31;10.80;99.90
18779;DHT22;9518;51.720;14.384;2022-09-09T04:17:58;10.80;99.90
18779;DHT22;9518;51.720;14.384;2022-09-09T04:20:29;10.70;99.90
18779;DHT22;9518;51.720;14.384;2022-09-09T04:22:57;10.70;99.90
18779;DHT22;9518;51.720;14.384;2022-09-09T04:25:25;10.70;99.90
18779;DHT22;9518;51.720;14.384;2022-09-09T04:27:53;10.70;99.90
18779;DHT22;9518;51.720;14.384;2022-09-09T04:30:20;10.70;99.90
18779;DHT22;9518;51.720;14.384;2022-09-09T04:32:47;10.70;99.90
18779;DHT22;9518;51.720;14.384;2022-09-09T04:35:15;10.70;99.90
18779;DHT22;9518;51.720;14.384;2022-09-09T04:37:42;10.60;99.90
18779;DHT22;9518;51.720;14.384;2022-09-09T04:40:10;10.60;99.90
18779;DHT22;9518;51.720;14.384;2022-09-09T04:42:39;10.60;99.90
18779;DHT22;9518;51.720;14.384;2022-09-09T04:45:09;10.60;99.90
18779;DHT22;9518;51.720;14.384;2022-09-09T04:47:39;10.60;99.90
18779;DHT22;9518;51.720;14.384;2022-09-09T04:50:07;10.70;99.90
18779;DHT22;9518;51.720;14.384;2022-09-09T04:52:34;10.80;99.90
18779;DHT22;9518;51.720;14.384;2022-09-09T04:55:01;10.80;99.90
18779;DHT22;9518;51.720;14.384;2022-09-09T04:57:28;10.90;99.90
18779;DHT22;9518;51.720;14.384;2022-09-09T04:59:58;10.90;99.90
18779;DHT22;9518;51.720;14.384;2022-09-09T05:02:25;11.00;99.90
18779;DHT22;9518;51.720;14.384;2022-09-09T05:04:52;11.10;99.90
18779;DHT22;9518;51.720;14.384;2022-09-09T05:07:19;11.20;99.90
18779;DHT22;9518;51.720;14.384;2022-09-09T05:09:46;11.30;99.90
18779;DHT22;9518;51.720;14.384;2022-09-09T05:12:14;11.40;99.90
18779;DHT22;9518;51.720;14.384;2022-09-09T05:14:43;11.50;99.90
18779;DHT22;9518;51.720;14.384;2022-09-09T05:17:11;11.60;99.90
18779;DHT22;9518;51.720;14.384;2022-09-09T05:19:38;11.80;99.90
18779;DHT22;9518;51.720;14.384;2022-09-09T05:22:05;12.00;99.90
18779;DHT22;9518;51.720;14.384;2022-09-09T05:24:33;12.00;99.90
18779;DHT22;9518;51.720;14.384;2022-09-09T05:27:00;12.00;99.90
18779;DHT22;9518;51.720;14.384;2022-09-09T05:29:28;12.10;99.90
18779;DHT22;9518;51.720;14.384;2022-09-09T05:31:55;12.00;99.90
18779;DHT22;9518;51.720;14.384;2022-09-09T05:34:23;12.10;99.90
18779;DHT22;9518;51.720;14.384;2022-09-09T05:36:50;12.10;99.90
18779;DHT22;9518;51.720;14.384;2022-09-09T05:39:17;12.10;99.90
18779;DHT22;9518;51.720;14.384;2022-09-09T05:41:44;12.10;99.90
18779;DHT22;9518;51.720;14.384;2022-09-09T05:44:13;12.20;99.90
18779;DHT22;9518;51.720;14.384;2022-09-09T05:46:40;12.30;99.90
18779;DHT22;9518;51.720;14.384;2022-09-09T05:49:09;12.40;99.90
18779;DHT22;9518;51.720;14.384;2022-09-09T05:51:37;12.40;99.90
18779;DHT22;9518;51.720;14.384;2022-09-09T05:54:04;12.50;99.90
18779;DHT22;9518;51.720;14.384;2022-09-09T05:56:31;12.60;99.90
18779;DHT22;9518;51.720;14.384;2022-09-09T05:58:58;12.60;99.90
18779;DHT22;9518;51.720;14.384;2022-09-09T06:01:28;12.80;99.90
18779;DHT22;9518;51.720;14.384;2022-09-09T06:03:55;12.90;99.90
18779;DHT22;9518;51.720;14.384;2022-09-09T06:06:24;13.10;99.90
18779;DHT22;9518;51.720;14.384;2022-09-09T06:08:54;13.20;99.90
18779;DHT22;9518;51.720;14.384;2022-09-09T06:11:24;13.30;99.90
18779;DHT22;9518;51.720;14.384;2022-09-09T06:13:52;13.40;99.90
18779;DHT22;9518;51.720;14.384;2022-09-09T06:16:21;13.70;99.90
18779;DHT22;9518;51.720;14.384;2022-09-09T06:18:49;13.90;99.90
18779;DHT22;9518;51.720;14.384;2022-09-09T06:21:18;14.00;99.90
18779;DHT22;9518;51.720;14.384;2022-09-09T06:23:46;14.20;99.90
18779;DHT22;9518;51.720;14.384;2022-09-09T06:26:17;14.30;99.90
18779;DHT22;9518;51.720;14.384;2022-09-09T06:28:45;14.40;99.90
18779;DHT22;9518;51.720;14.384;2022-09-09T06:31:15;14.50;99.90
18779;DHT22;9518;51.720;14.384;2022-09-09T06:33:43;14.60;99.90
18779;DHT22;9518;51.720;14.384;2022-09-09T06:36:12;14.80;99.90
18779;DHT22;9518;51.720;14.384;2022-09-09T06:38:40;15.00;99.90
18779;DHT22;9518;51.720;14.384;2022-09-09T06:41:08;15.20;99.90
18779;DHT22;9518;51.720;14.384;2022-09-09T06:43:37;15.50;99.90
18779;DHT22;9518;51.720;14.384;2022-09-09T06:46:09;15.70;99.90
18779;DHT22;9518;51.720;14.384;2022-09-09T06:48:38;15.80;99.90
18779;DHT22;9518;51.720;14.384;2022-09-09T06:51:08;15.90;99.90
18779;DHT22;9518;51.720;14.384;2022-09-09T06:53:36;16.10;99.90
18779;DHT22;9518;51.720;14.384;2022-09-09T06:56:18;16.40;99.90
18779;DHT22;9518;51.720;14.384;2022-09-09T06:58:47;16.50;99.90
18779;DHT22;9518;51.720;14.384;2022-09-09T07:01:16;16.50;99.90
18779;DHT22;9518;51.720;14.384;2022-09-09T07:03:46;16.50;99.90
18779;DHT22;9518;51.720;14.384;2022-09-09T07:06:15;16.60;99.90
18779;DHT22;9518;51.720;14.384;2022-09-09T07:08:42;16.70;99.90
18779;DHT22;9518;51.720;14.384;2022-09-09T07:11:10;17.00;99.90
18779;DHT22;9518;51.720;14.384;2022-09-09T07:13:38;17.20;99.90
18779;DHT22;9518;51.720;14.384;2022-09-09T07:16:08;17.40;99.90
18779;DHT22;9518;51.720;14.384;2022-09-09T07:18:35;17.70;99.90
18779;DHT22;9518;51.720;14.384;2022-09-09T07:21:03;17.90;99.90
18779;DHT22;9518;51.720;14.384;2022-09-09T07:23:30;18.10;99.90
18779;DHT22;9518;51.720;14.384;2022-09-09T07:25:58;18.40;99.90
18779;DHT22;9518;51.720;14.384;2022-09-09T07:28:25;18.70;69.50
18779;DHT22;9518;51.720;14.384;2022-09-09T07:30:55;18.80;1.00
18779;DHT22;9518;51.720;14.384;2022-09-09T07:33:24;18.80;99.90
18779;DHT22;9518;51.720;14.384;2022-09-09T07:35:52;19.00;1.00
18779;DHT22;9518;51.720;14.384;2022-09-09T07:38:20;19.20;99.90
18779;DHT22;9518;51.720;14.384;2022-09-09T07:40:48;19.40;1.00
18779;DHT22;9518;51.720;14.384;2022-09-09T07:43:15;19.50;1.00
18779;DHT22;9518;51.720;14.384;2022-09-09T07:45:42;19.60;1.00
18779;DHT22;9518;51.720;14.384;2022-09-09T07:48:09;19.90;1.00
18779;DHT22;9518;51.720;14.384;2022-09-09T07:50:38;20.10;1.00
18779;DHT22;9518;51.720;14.384;2022-09-09T07:53:05;20.20;99.90
18779;DHT22;9518;51.720;14.384;2022-09-09T07:55:32;20.30;1.00
18779;DHT22;9518;51.720;14.384;2022-09-09T07:57:59;20.70;1.00
18779;DHT22;9518;51.720;14.384;2022-09-09T08:00:26;20.80;99.90
18779;DHT22;9518;51.720;14.384;2022-09-09T08:02:54;20.90;99.90
18779;DHT22;9518;51.720;14.384;2022-09-09T08:05:21;21.00;99.90
18779;DHT22;9518;51.720;14.384;2022-09-09T08:07:49;21.20;99.90
18779;DHT22;9518;51.720;14.384;2022-09-09T08:10:16;21.30;99.90
18779;DHT22;9518;51.720;14.384;2022-09-09T08:12:44;21.30;32.80
18779;DHT22;9518;51.720;14.384;2022-09-09T08:15:12;21.30;14.40
18779;DHT22;9518;51.720;14.384;2022-09-09T08:17:39;21.10;42.80
18779;DHT22;9518;51.720;14.384;2022-09-09T08:20:06;21.00;4.20
18779;DHT22;9518;51.720;14.384;2022-09-09T08:22:33;21.00;23.50
18779;DHT22;9518;51.720;14.384;2022-09-09T08:25:02;21.20;2.80
18779;DHT22;9518;51.720;14.384;2022-09-09T08:27:31;21.20;1.00
18779;DHT22;9518;51.720;14.384;2022-09-09T08:29:58;21.30;5.60
18779;DHT22;9518;51.720;14.384;2022-09-09T08:32:25;21.40;3.90
18779;DHT22;9518;51.720;14.384;2022-09-09T08:34:53;21.40;38.40
18779;DHT22;9518;51.720;14.384;2022-09-09T08:37:19;21.60;24.50
18779;DHT22;9518;51.720;14.384;2022-09-09T08:39:47;21.60;22.50
18779;DHT22;9518;51.720;14.384;2022-09-09T08:42:37;21.60;1.00
18779;DHT22;9518;51.720;14.384;2022-09-09T08:45:28;21.70;1.00
18779;DHT22;9518;51.720;14.384;2022-09-09T08:48:09;21.60;1.00
18779;DHT22;9518;51.720;14.384;2022-09-09T08:50:37;21.50;1.00
18779;DHT22;9518;51.720;14.384;2022-09-09T08:53:12;21.70;42.80
18779;DHT22;9518;51.720;14.384;2022-09-09T08:55:45;22.00;1.00
18779;DHT22;9518;51.720;14.384;2022-09-09T08:58:17;22.20;1.00
18779;DHT22;9518;51.720;14.384;2022-09-09T09:01:00;22.40;1.00
18779;DHT22;9518;51.720;14.384;2022-09-09T09:03:35;22.60;1.00
18779;DHT22;9518;51.720;14.384;2022-09-09T09:06:10;22.50;1.00
18779;DHT22;9518;51.720;14.384;2022-09-09T09:08:47;22.60;1.00
18779;DHT22;9518;51.720;14.384;2022-09-09T09:11:18;22.60;1.00
18779;DHT22;9518;51.720;14.384;2022-09-09T09:13:50;22.60;1.00
18779;DHT22;9518;51.720;14.384;2022-09-09T09:16:25;22.80;1.00
18779;DHT22;9518;51.720;14.384;2022-09-09T09:18:53;23.00;1.00
18779;DHT22;9518;51.720;14.384;2022-09-09T09:21:27;23.10;1.00
18779;DHT22;9518;51.720;14.384;2022-09-09T09:23:59;23.00;1.00
18779;DHT22;9518;51.720;14.384;2022-09-09T09:26:31;23.10;1.00
18779;DHT22;9518;51.720;14.384;2022-09-09T09:29:09;23.20;1.00
18779;DHT22;9518;51.720;14.384;2022-09-09T09:31:37;23.60;1.00
18779;DHT22;9518;51.720;14.384;2022-09-09T09:34:04;23.70;1.00
18779;DHT22;9518;51.720;14.384;2022-09-09T09:36:38;23.80;1.00
18779;DHT22;9518;51.720;14.384;2022-09-09T09:39:07;24.00;1.00
18779;DHT22;9518;51.720;14.384;2022-09-09T09:41:36;24.10;1.00
18779;DHT22;9518;51.720;14.384;2022-09-09T09:46:49;24.00;1.00
18779;DHT22;9518;51.720;14.384;2022-09-09T09:49:16;24.00;1.00
18779;DHT22;9518;51.720;14.384;2022-09-09T09:51:43;23.90;1.00
18779;DHT22;9518;51.720;14.384;2022-09-09T09:54:17;24.00;1.00
18779;DHT22;9518;51.720;14.384;2022-09-09T09:56:45;23.80;1.00
18779;DHT22;9518;51.720;14.384;2022-09-09T09:59:23;23.90;1.00
18779;DHT22;9518;51.720;14.384;2022-09-09T10:01:50;24.00;1.00
18779;DHT22;9518;51.720;14.384;2022-09-09T10:04:19;23.80;1.00
18779;DHT22;9518;51.720;14.384;2022-09-09T10:06:49;23.60;1.00
18779;DHT22;9518;51.720;14.384;2022-09-09T10:09:22;23.60;1.00
18779;DHT22;9518;51.720;14.384;2022-09-09T10:11:57;24.10;1.00
18779;DHT22;9518;51.720;14.384;2022-09-09T10:14:35;24.80;1.00
18779;DHT22;9518;51.720;14.384;2022-09-09T10:17:14;25.10;1.00
18779;DHT22;9518;51.720;14.384;2022-09-09T10:19:51;25.40;1.00
18779;DHT22;9518;51.720;14.384;2022-09-09T10:22:26;25.40;1.00
18779;DHT22;9518;51.720;14.384;2022-09-09T10:25:20;25.50;1.00
18779;DHT22;9518;51.720;14.384;2022-09-09T10:27:59;25.70;1.00
18779;DHT22;9518;51.720;14.384;2022-09-09T10:30:34;25.60;1.00
18779;DHT22;9518;51.720;14.384;2022-09-09T10:33:09;25.50;1.00
18779;DHT22;9518;51.720;14.384;2022-09-09T10:35:43;25.30;1.00
18779;DHT22;9518;51.720;14.384;2022-09-09T10:38:14;25.00;1.00
18779;DHT22;9518;51.720;14.384;2022-09-09T10:40:49;24.50;1.00
18779;DHT22;9518;51.720;14.384;2022-09-09T10:43:36;23.80;1.00
18779;DHT22;9518;51.720;14.384;2022-09-09T10:46:13;23.40;1.00
18779;DHT22;9518;51.720;14.384;2022-09-09T10:48:55;23.20;1.00
18779;DHT22;9518;51.720;14.384;2022-09-09T10:51:31;23.00;1.00
18779;DHT22;9518;51.720;14.384;2022-09-09T10:54:24;22.80;1.00
18779;DHT22;9518;51.720;14.384;2022-09-09T10:56:58;22.50;1.00
18779;DHT22;9518;51.720;14.384;2022-09-09T10:59:27;22.30;1.00
18779;DHT22;9518;51.720;14.384;2022-09-09T11:02:01;22.20;1.00
18779;DHT22;9518;51.720;14.384;2022-09-09T11:04:35;22.20;1.00
18779;DHT22;9518;51.720;14.384;2022-09-09T11:07:07;22.10;1.00
18779;DHT22;9518;51.720;14.384;2022-09-09T11:09:38;22.00;1.00
18779;DHT22;9518;51.720;14.384;2022-09-09T11:12:12;22.00;1.00
18779;DHT22;9518;51.720;14.384;2022-09-09T11:14:43;21.90;1.00
18779;DHT22;9518;51.720;14.384;2022-09-09T11:17:16;22.00;1.00
18779;DHT22;9518;51.720;14.384;2022-09-09T11:19:44;22.30;1.00
18779;DHT22;9518;51.720;14.384;2022-09-09T11:22:18;22.60;1.00
18779;DHT22;9518;51.720;14.384;2022-09-09T11:24:52;22.70;1.00
18779;DHT22;9518;51.720;14.384;2022-09-09T11:27:23;22.80;1.00
18779;DHT22;9518;51.720;14.384;2022-09-09T11:33:08;22.40;1.00
18779;DHT22;9518;51.720;14.384;2022-09-09T11:35:48;22.50;1.00
18779;DHT22;9518;51.720;14.384;2022-09-09T11:38:26;23.30;1.00
18779;DHT22;9518;51.720;14.384;2022-09-09T11:40:56;24.30;1.00
18779;DHT22;9518;51.720;14.384;2022-09-09T11:43:28;25.40;1.00
18779;DHT22;9518;51.720;14.384;2022-09-09T11:45:59;26.20;1.00
18779;DHT22;9518;51.720;14.384;2022-09-09T11:48:32;27.00;1.00
18779;DHT22;9518;51.720;14.384;2022-09-09T11:51:03;27.80;1.00
18779;DHT22;9518;51.720;14.384;2022-09-09T11:53:31;27.70;1.00
18779;DHT22;9518;51.720;14.384;2022-09-09T11:56:07;27.00;1.00
18779;DHT22;9518;51.720;14.384;2022-09-09T11:58:40;27.20;1.00
18779;DHT22;9518;51.720;14.384;2022-09-09T12:01:29;27.40;1.00
18779;DHT22;9518;51.720;14.384;2022-09-09T12:06:57;28.90;1.00
18779;DHT22;9518;51.720;14.384;2022-09-09T12:09:39;29.70;1.00
18779;DHT22;9518;51.720;14.384;2022-09-09T12:12:27;30.10;1.00
18779;DHT22;9518;51.720;14.384;2022-09-09T12:15:23;30.60;1.00
18779;DHT22;9518;51.720;14.384;2022-09-09T12:17:53;30.60;1.00
18779;DHT22;9518;51.720;14.384;2022-09-09T12:20:23;30.50;1.00
18779;DHT22;9518;51.720;14.384;2022-09-09T12:23:20;30.50;1.00
18779;DHT22;9518;51.720;14.384;2022-09-09T12:26:00;30.60;1.00
18779;DHT22;9518;51.720;14.384;2022-09-09T12:28:42;30.40;1.00
18779;DHT22;9518;51.720;14.384;2022-09-09T12:31:16;30.60;1.00
18779;DHT22;9518;51.720;14.384;2022-09-09T12:33:45;30.60;1.00
18779;DHT22;9518;51.720;14.384;2022-09-09T12:36:16;30.90;1.00
18779;DHT22;9518;51.720;14.384;2022-09-09T12:38:45;30.90;1.00
18779;DHT22;9518;51.720;14.384;2022-09-09T12:41:20;31.10;1.00
18779;DHT22;9518;51.720;14.384;2022-09-09T12:43:47;31.60;1.00
18779;DHT22;9518;51.720;14.384;2022-09-09T12:46:23;31.80;1.00
18779;DHT22;9518;51.720;14.384;2022-09-09T12:48:53;31.70;1.00
18779;DHT22;9518;51.720;14.384;2022-09-09T12:51:26;32.10;1.00
18779;DHT22;9518;51.720;14.384;2022-09-09T12:53:54;32.70;1.00
18779;DHT22;9518;51.720;14.384;2022-09-09T12:56:23;32.80;1.00
18779;DHT22;9518;51.720;14.384;2022-09-09T12:58:53;31.20;1.00
18779;DHT22;9518;51.720;14.384;2022-09-09T13:01:22;29.50;1.00
18779;DHT22;9518;51.720;14.384;2022-09-09T13:03:49;28.20;1.00
18779;DHT22;9518;51.720;14.384;2022-09-09T13:06:23;26.80;1.00
18779;DHT22;9518;51.720;14.384;2022-09-09T13:08:50;25.80;1.00
18779;DHT22;9518;51.720;14.384;2022-09-09T13:11:21;25.00;1.00
18779;DHT22;9518;51.720;14.384;2022-09-09T13:13:52;24.60;1.00
18779;DHT22;9518;51.720;14.384;2022-09-09T13:16:21;24.60;1.00
18779;DHT22;9518;51.720;14.384;2022-09-09T13:18:49;24.50;1.00
18779;DHT22;9518;51.720;14.384;2022-09-09T13:21:17;24.40;1.00
18779;DHT22;9518;51.720;14.384;2022-09-09T13:23:50;24.40;1.00
18779;DHT22;9518;51.720;14.384;2022-09-09T13:26:22;24.40;1.00
18779;DHT22;9518;51.720;14.384;2022-09-09T13:28:50;24.40;1.00
18779;DHT22;9518;51.720;14.384;2022-09-09T13:31:23;24.40;1.00
18779;DHT22;9518;51.720;14.384;2022-09-09T13:33:54;24.30;1.00
18779;DHT22;9518;51.720;14.384;2022-09-09T13:36:31;24.40;1.00
18779;DHT22;9518;51.720;14.384;2022-09-09T13:39:01;24.40;1.00
18779;DHT22;9518;51.720;14.384;2022-09-09T13:41:31;24.20;1.00
18779;DHT22;9518;51.720;14.384;2022-09-09T13:43:59;24.10;1.00
18779;DHT22;9518;51.720;14.384;2022-09-09T13:46:31;24.10;1.00
18779;DHT22;9518;51.720;14.384;2022-09-09T13:49:00;24.00;1.00
18779;DHT22;9518;51.720;14.384;2022-09-09T13:51:37;24.00;1.00
18779;DHT22;9518;51.720;14.384;2022-09-09T13:54:06;24.20;1.00
18779;DHT22;9518;51.720;14.384;2022-09-09T13:56:36;24.50;1.00
18779;DHT22;9518;51.720;14.384;2022-09-09T13:59:04;24.80;1.00
18779;DHT22;9518;51.720;14.384;2022-09-09T14:01:32;24.80;1.00
18779;DHT22;9518;51.720;14.384;2022-09-09T14:04:00;25.70;1.00
18779;DHT22;9518;51.720;14.384;2022-09-09T14:06:27;27.10;1.00
18779;DHT22;9518;51.720;14.384;2022-09-09T14:08:54;29.00;1.00
18779;DHT22;9518;51.720;14.384;2022-09-09T14:11:23;31.00;1.00
18779;DHT22;9518;51.720;14.384;2022-09-09T14:13:49;32.20;1.00
18779;DHT22;9518;51.720;14.384;2022-09-09T14:16:16;32.60;1.00
18779;DHT22;9518;51.720;14.384;2022-09-09T14:18:44;33.30;1.00
18779;DHT22;9518;51.720;14.384;2022-09-09T14:21:11;34.20;1.00
18779;DHT22;9518;51.720;14.384;2022-09-09T14:23:38;35.30;1.00
18779;DHT22;9518;51.720;14.384;2022-09-09T14:26:06;35.40;1.00
18779;DHT22;9518;51.720;14.384;2022-09-09T14:28:35;34.30;1.00
18779;DHT22;9518;51.720;14.384;2022-09-09T14:31:03;32.50;1.00
18779;DHT22;9518;51.720;14.384;2022-09-09T14:33:30;30.70;1.00
18779;DHT22;9518;51.720;14.384;2022-09-09T14:35:58;29.50;1.00
18779;DHT22;9518;51.720;14.384;2022-09-09T14:38:28;29.00;1.00
18779;DHT22;9518;51.720;14.384;2022-09-09T14:40:55;28.60;1.00
18779;DHT22;9518;51.720;14.384;2022-09-09T14:43:24;28.10;1.00
18779;DHT22;9518;51.720;14.384;2022-09-09T14:45:53;27.50;1.00
18779;DHT22;9518;51.720;14.384;2022-09-09T14:48:19;27.80;1.00
18779;DHT22;9518;51.720;14.384;2022-09-09T14:50:46;29.70;1.00
18779;DHT22;9518;51.720;14.384;2022-09-09T14:53:16;31.80;1.00
18779;DHT22;9518;51.720;14.384;2022-09-09T14:55:43;34.10;1.00
18779;DHT22;9518;51.720;14.384;2022-09-09T14:58:12;34.90;1.00
18779;DHT22;9518;51.720;14.384;2022-09-09T15:00:39;35.10;1.00
18779;DHT22;9518;51.720;14.384;2022-09-09T15:03:08;34.00;1.00
18779;DHT22;9518;51.720;14.384;2022-09-09T15:05:36;33.80;1.00
18779;DHT22;9518;51.720;14.384;2022-09-09T15:08:03;33.60;1.00
18779;DHT22;9518;51.720;14.384;2022-09-09T15:10:29;33.50;1.00
18779;DHT22;9518;51.720;14.384;2022-09-09T15:12:58;33.80;1.00
18779;DHT22;9518;51.720;14.384;2022-09-09T15:15:25;32.80;1.00
18779;DHT22;9518;51.720;14.384;2022-09-09T15:17:52;32.10;1.00
18779;DHT22;9518;51.720;14.384;2022-09-09T15:20:20;31.60;1.00
18779;DHT22;9518;51.720;14.384;2022-09-09T15:22:47;31.50;1.00
18779;DHT22;9518;51.720;14.384;2022-09-09T15:25:14;31.60;1.00
18779;DHT22;9518;51.720;14.384;2022-09-09T15:27:43;32.60;1.00
18779;DHT22;9518;51.720;14.384;2022-09-09T15:30:11;32.60;1.00
18779;DHT22;9518;51.720;14.384;2022-09-09T15:32:38;33.00;1.00
18779;DHT22;9518;51.720;14.384;2022-09-09T15:35:06;33.40;1.00
18779;DHT22;9518;51.720;14.384;2022-09-09T15:37:34;33.50;1.00
18779;DHT22;9518;51.720;14.384;2022-09-09T15:40:02;33.80;1.00
18779;DHT22;9518;51.720;14.384;2022-09-09T15:42:30;33.50;1.00
18779;DHT22;9518;51.720;14.384;2022-09-09T15:44:57;33.40;1.00
18779;DHT22;9518;51.720;14.384;2022-09-09T15:47:24;32.40;1.00
18779;DHT22;9518;51.720;14.384;2022-09-09T15:49:52;32.00;1.00
18779;DHT22;9518;51.720;14.384;2022-09-09T15:52:19;31.80;1.00
18779;DHT22;9518;51.720;14.384;2022-09-09T15:54:47;31.40;1.00
18779;DHT22;9518;51.720;14.384;2022-09-09T15:57:14;30.90;1.00
18779;DHT22;9518;51.720;14.384;2022-09-09T15:59:41;29.70;1.00
18779;DHT22;9518;51.720;14.384;2022-09-09T16:02:10;28.60;1.00
18779;DHT22;9518;51.720;14.384;2022-09-09T16:04:37;27.60;1.00
18779;DHT22;9518;51.720;14.384;2022-09-09T16:07:05;26.70;1.00
18779;DHT22;9518;51.720;14.384;2022-09-09T16:09:33;26.10;1.00
18779;DHT22;9518;51.720;14.384;2022-09-09T16:12:03;25.70;1.00